createdAt,value
2023-04-25T00:00:26.248Z,3.20
2023-04-25T00:02:54.215Z,3.37
2023-04-25T00:05:24.396Z,3.43
2023-04-25T00:07:52.318Z,3.53
2023-04-25T00:10:20.374Z,3.17
2023-04-25T00:12:48.823Z,3.37
2023-04-25T00:15:17.074Z,3.20
2023-04-25T00:17:46.639Z,3.43
2023-04-25T00:20:15.445Z,3.37
2023-04-25T00:22:43.283Z,2.77
2023-04-25T00:25:11.232Z,2.83
2023-04-25T00:27:40.089Z,2.73
2023-04-25T00:30:08.920Z,3.30
2023-04-25T00:32:36.730Z,3.10
2023-04-25T00:35:06.862Z,2.80
2023-04-25T00:37:34.702Z,2.33
2023-04-25T00:40:02.496Z,3.50
2023-04-25T00:42:30.899Z,3.17
2023-04-25T00:45:00.592Z,3.77
2023-04-25T00:47:28.610Z,3.07
2023-04-25T00:49:56.370Z,3.37
2023-04-25T00:52:25.799Z,3.30
2023-04-25T00:54:53.598Z,3.53
2023-04-25T00:57:21.356Z,4.30
2023-04-25T00:59:49.992Z,4.00
2023-04-25T01:02:17.861Z,4.60
2023-04-25T01:04:46.585Z,3.47
2023-04-25T01:07:14.521Z,3.83
2023-04-25T01:09:43.730Z,4.53
2023-04-25T01:12:11.635Z,4.00
2023-04-25T01:14:39.383Z,4.70
2023-04-25T01:17:08.698Z,3.40
2023-04-25T01:19:36.622Z,3.87
2023-04-25T01:22:06.055Z,3.53
2023-04-25T01:24:34.280Z,3.83
2023-04-25T01:27:03.319Z,3.80
2023-04-25T01:29:31.995Z,3.50
2023-04-25T01:32:00.219Z,3.80
2023-04-25T01:34:28.039Z,4.17
2023-04-25T01:36:56.415Z,3.13
2023-04-25T01:39:25.985Z,3.40
2023-04-25T01:41:53.763Z,3.63
2023-04-25T01:44:21.527Z,3.50
2023-04-25T01:46:49.254Z,3.23
2023-04-25T01:49:17.050Z,3.70
2023-04-25T01:51:45.183Z,3.40
2023-04-25T01:54:13.203Z,3.20
2023-04-25T01:56:42.320Z,3.40
2023-04-25T01:59:10.099Z,3.73
2023-04-25T02:01:37.911Z,4.17
2023-04-25T02:04:06.096Z,3.13
2023-04-25T02:06:34.066Z,2.80
2023-04-25T02:09:01.970Z,3.20
2023-04-25T02:11:29.692Z,2.97
2023-04-25T02:13:58.758Z,3.30
2023-04-25T02:16:26.577Z,3.30
2023-04-25T02:18:54.945Z,3.23
2023-04-25T02:21:22.677Z,4.00
2023-04-25T02:23:53.107Z,3.20
2023-04-25T02:26:22.000Z,2.93
2023-04-25T02:28:52.473Z,3.03
2023-04-25T02:31:21.659Z,2.97
2023-04-25T02:33:50.351Z,2.20
2023-04-25T02:36:18.242Z,2.57
2023-04-25T02:38:46.031Z,2.80
2023-04-25T02:41:13.753Z,2.37
2023-04-25T02:43:41.458Z,2.57
2023-04-25T02:46:09.796Z,2.67
2023-04-25T02:48:38.893Z,2.10
2023-04-25T02:51:06.751Z,2.80
2023-04-25T02:53:34.530Z,2.53
2023-04-25T02:56:02.356Z,2.43
2023-04-25T02:58:30.135Z,3.00
2023-04-25T03:00:57.970Z,2.63
2023-04-25T03:03:26.053Z,2.57
2023-04-25T03:05:55.224Z,2.87
2023-04-25T03:08:23.690Z,2.40
2023-04-25T03:10:53.109Z,2.50
2023-04-25T03:13:20.839Z,3.43
2023-04-25T03:15:48.560Z,2.27
2023-04-25T03:18:16.277Z,2.47
2023-04-25T03:20:44.423Z,2.50
2023-04-25T03:23:13.583Z,1.93
2023-04-25T03:25:41.503Z,2.57
2023-04-25T03:28:09.234Z,2.50
2023-04-25T03:30:36.983Z,3.40
2023-04-25T03:33:04.873Z,2.40
2023-04-25T03:35:32.801Z,2.57
2023-04-25T03:38:00.539Z,2.53
2023-04-25T03:40:29.693Z,2.27
2023-04-25T03:42:57.411Z,2.47
2023-04-25T03:45:25.219Z,3.60
2023-04-25T03:47:52.974Z,4.57
2023-04-25T03:50:20.767Z,2.57
2023-04-25T03:52:48.513Z,2.97
2023-04-25T03:55:16.250Z,2.50
2023-04-25T03:57:45.462Z,2.37
2023-04-25T04:00:14.592Z,3.07
2023-04-25T04:02:44.002Z,2.60
2023-04-25T04:05:13.466Z,3.00
2023-04-25T04:07:43.545Z,2.83
2023-04-25T04:10:12.601Z,2.70
2023-04-25T04:12:40.841Z,2.23
2023-04-25T04:15:12.850Z,1.87
2023-04-25T04:17:41.682Z,3.53
2023-04-25T04:20:10.697Z,2.10
2023-04-25T04:22:38.437Z,2.57
2023-04-25T04:25:07.789Z,2.87
2023-04-25T04:27:35.658Z,2.10
2023-04-25T04:30:04.321Z,2.60
2023-04-25T04:32:34.454Z,2.43
2023-04-25T04:35:03.079Z,2.87
2023-04-25T04:37:31.011Z,2.93
2023-04-25T04:39:58.728Z,3.10
2023-04-25T04:42:26.507Z,2.27
2023-04-25T04:44:55.914Z,2.97
2023-04-25T04:47:24.687Z,2.80
2023-04-25T04:49:53.844Z,2.60
2023-04-25T04:52:21.563Z,2.50
2023-04-25T04:54:49.291Z,2.10
2023-04-25T04:57:17.526Z,2.27
2023-04-25T04:59:45.494Z,2.37
2023-04-25T05:02:13.303Z,2.60
2023-04-25T05:04:41.403Z,3.03
2023-04-25T05:07:10.937Z,2.40
2023-04-25T05:09:38.702Z,2.37
2023-04-25T05:12:06.904Z,2.77
2023-04-25T05:14:34.756Z,3.23
2023-04-25T05:17:02.654Z,2.47
2023-04-25T05:19:30.685Z,2.30
2023-04-25T05:21:58.410Z,2.87
2023-04-25T05:24:27.731Z,3.00
2023-04-25T05:26:55.543Z,2.57
2023-04-25T05:29:23.237Z,2.80
2023-04-25T05:31:50.987Z,2.47
2023-04-25T05:34:18.854Z,2.87
2023-04-25T05:36:49.359Z,3.00
2023-04-25T05:39:17.239Z,3.30
2023-04-25T05:41:46.420Z,3.17
2023-04-25T05:44:14.142Z,2.40
2023-04-25T05:46:41.875Z,2.63
2023-04-25T05:49:09.590Z,2.00
2023-04-25T05:51:37.346Z,2.73
2023-04-25T05:54:05.228Z,2.73
2023-04-25T05:56:32.982Z,3.20
2023-04-25T05:59:02.103Z,3.23
2023-04-25T06:01:29.826Z,1.70
2023-04-25T06:03:57.995Z,3.30
2023-04-25T06:06:27.827Z,3.13
2023-04-25T06:08:55.713Z,3.10
2023-04-25T06:11:23.496Z,2.43
2023-04-25T06:13:51.496Z,3.00
2023-04-25T06:16:21.107Z,2.27
2023-04-25T06:18:48.859Z,3.13
2023-04-25T06:21:16.811Z,2.67
2023-04-25T06:23:44.961Z,2.97
2023-04-25T06:26:12.687Z,2.50
2023-04-25T06:28:40.555Z,2.70
2023-04-25T06:31:08.465Z,2.77
2023-04-25T06:33:37.572Z,2.40
2023-04-25T06:36:05.872Z,2.97
2023-04-25T06:38:33.611Z,2.13
2023-04-25T06:41:01.323Z,2.17
2023-04-25T06:43:29.076Z,3.17
2023-04-25T06:45:56.927Z,2.23
2023-04-25T06:48:24.714Z,2.40
2023-04-25T06:50:53.880Z,2.97
2023-04-25T06:53:21.611Z,3.40
2023-04-25T06:55:49.345Z,2.90
2023-04-25T06:58:17.062Z,3.00
2023-04-25T07:00:44.877Z,2.80
2023-04-25T07:03:12.990Z,2.97
2023-04-25T07:05:40.912Z,3.87
2023-04-25T07:08:10.042Z,3.07
2023-04-25T07:10:37.754Z,2.70
2023-04-25T07:13:05.561Z,2.33
2023-04-25T07:15:33.321Z,2.00
2023-04-25T07:18:01.073Z,1.80
2023-04-25T07:20:28.865Z,2.27
2023-04-25T07:22:56.612Z,2.30
2023-04-25T07:25:25.959Z,2.50
2023-04-25T07:27:53.703Z,2.60
2023-04-25T07:30:21.482Z,2.67
2023-04-25T07:32:49.690Z,2.37
2023-04-25T07:35:18.330Z,1.80
2023-04-25T07:37:46.129Z,2.50
2023-04-25T07:40:14.256Z,1.40
2023-04-25T07:42:43.366Z,1.70
2023-04-25T07:45:12.032Z,1.77
2023-04-25T07:47:40.433Z,2.93
2023-04-25T07:50:09.228Z,2.17
2023-04-25T07:52:37.015Z,2.50
2023-04-25T07:55:05.147Z,2.10
2023-04-25T07:57:32.869Z,2.30
2023-04-25T08:00:01.965Z,2.20
2023-04-25T08:02:29.814Z,2.00
2023-04-25T08:04:57.719Z,2.30
2023-04-25T08:07:26.186Z,1.87
2023-04-25T08:09:53.975Z,1.90
2023-04-25T08:12:23.474Z,2.03
2023-04-25T08:14:51.359Z,2.67
2023-04-25T08:17:20.472Z,1.90
2023-04-25T08:19:48.181Z,2.67
2023-04-25T08:22:15.967Z,2.07
2023-04-25T08:24:43.753Z,1.73
2023-04-25T08:27:12.135Z,2.20
2023-04-25T08:29:39.866Z,1.67
2023-04-25T08:32:07.817Z,2.57
2023-04-25T08:34:37.874Z,2.53
2023-04-25T08:37:06.720Z,2.30
2023-04-25T08:39:34.447Z,2.50
2023-04-25T08:42:04.716Z,2.97
2023-04-25T08:44:32.904Z,2.03
2023-04-25T08:47:01.219Z,2.17
2023-04-25T08:49:29.334Z,2.10
2023-04-25T08:52:01.885Z,1.47
2023-04-25T08:54:35.318Z,2.13
2023-04-25T08:57:05.473Z,1.47
2023-04-25T08:59:35.529Z,2.40
2023-04-25T09:02:05.213Z,2.20
2023-04-25T09:04:33.295Z,2.23
2023-04-25T09:07:02.528Z,2.00
2023-04-25T09:09:31.475Z,1.90
2023-04-25T09:12:00.469Z,2.53
2023-04-25T09:14:28.960Z,2.33
2023-04-25T09:17:01.498Z,1.60
2023-04-25T09:19:41.171Z,1.27
2023-04-25T09:22:11.218Z,2.27
2023-04-25T09:24:41.590Z,1.60
2023-04-25T09:27:11.874Z,2.57
2023-04-25T09:29:41.766Z,2.00
2023-04-25T09:32:15.038Z,1.87
2023-04-25T09:34:43.877Z,2.90
2023-04-25T09:37:13.293Z,2.00
2023-04-25T09:39:41.759Z,2.30
2023-04-25T09:42:11.520Z,1.90
2023-04-25T09:44:43.825Z,1.80
2023-04-25T09:47:13.469Z,3.37
2023-04-25T09:49:43.842Z,2.10
2023-04-25T09:52:15.692Z,2.03
2023-04-25T09:54:43.764Z,2.30
2023-04-25T09:57:16.881Z,2.20
2023-04-25T09:59:48.808Z,1.70
2023-04-25T10:02:20.549Z,2.03
2023-04-25T10:04:53.699Z,2.23
2023-04-25T10:07:26.865Z,1.83
2023-04-25T10:10:00.694Z,2.20
2023-04-25T10:12:28.667Z,2.07
2023-04-25T10:14:57.000Z,2.07
2023-04-25T10:17:25.413Z,2.50
2023-04-25T10:19:53.514Z,3.00
2023-04-25T10:22:31.473Z,2.43
2023-04-25T10:24:59.630Z,2.20
2023-04-25T10:27:29.435Z,2.03
2023-04-25T10:30:03.478Z,2.00
2023-04-25T10:32:33.435Z,2.37
2023-04-25T10:35:12.559Z,1.90
2023-04-25T10:37:58.744Z,1.73
2023-04-25T10:40:26.678Z,1.83
2023-04-25T10:42:54.435Z,1.87
2023-04-25T10:45:22.391Z,1.63
2023-04-25T10:47:50.330Z,1.97
2023-04-25T10:50:18.214Z,1.80
2023-04-25T10:52:47.425Z,1.87
2023-04-25T10:55:15.152Z,2.23
2023-04-25T10:57:44.909Z,1.73
2023-04-25T11:00:17.911Z,2.10
2023-04-25T11:02:48.119Z,1.80
2023-04-25T11:05:24.994Z,1.60
2023-04-25T11:08:06.285Z,1.87
2023-04-25T11:10:37.175Z,2.03
2023-04-25T11:13:05.809Z,1.03
2023-04-25T11:15:33.576Z,2.57
2023-04-25T11:18:02.253Z,1.33
2023-04-25T11:20:30.624Z,1.50
2023-04-25T11:23:01.546Z,1.20
2023-04-25T11:25:30.615Z,2.30
2023-04-25T11:28:01.507Z,1.70
2023-04-25T11:30:29.760Z,1.80
2023-04-25T11:32:57.597Z,1.90
2023-04-25T11:35:26.733Z,2.20
2023-04-25T11:37:54.729Z,1.40
2023-04-25T11:40:24.024Z,1.70
2023-04-25T11:42:52.629Z,1.97
2023-04-25T11:45:22.854Z,1.87
2023-04-25T11:47:51.536Z,1.30
2023-04-25T11:50:19.297Z,2.30
2023-04-25T11:52:48.456Z,2.00
2023-04-25T11:55:18.142Z,1.67
2023-04-25T11:57:49.767Z,1.70
2023-04-25T12:00:19.444Z,1.93
2023-04-25T12:02:49.022Z,1.50
2023-04-25T12:05:31.029Z,1.50
2023-04-25T12:08:00.447Z,1.67
2023-04-25T12:10:28.166Z,1.80
2023-04-25T12:12:57.263Z,1.60
2023-04-25T12:15:27.239Z,1.93
2023-04-25T12:17:56.386Z,1.80
2023-04-25T12:20:27.124Z,1.77
2023-04-25T12:22:55.673Z,2.17
2023-04-25T12:25:39.954Z,2.37
2023-04-25T12:28:16.639Z,1.73
2023-04-25T12:30:58.712Z,1.70
2023-04-25T12:33:28.128Z,1.53
2023-04-25T12:35:55.995Z,3.07
2023-04-25T12:38:28.343Z,2.10
2023-04-25T12:40:56.437Z,1.37
2023-04-25T12:43:25.799Z,1.77
2023-04-25T12:45:54.875Z,1.80
2023-04-25T12:48:23.840Z,1.83
2023-04-25T12:50:52.935Z,2.27
2023-04-25T12:53:22.457Z,1.73
2023-04-25T12:55:50.906Z,2.03
2023-04-25T12:58:20.213Z,1.47
2023-04-25T13:00:49.881Z,1.67
2023-04-25T13:03:17.796Z,1.80
2023-04-25T13:05:45.799Z,1.30
2023-04-25T13:08:13.610Z,1.80
2023-04-25T13:10:41.352Z,2.60
2023-04-25T13:13:09.518Z,1.57
2023-04-25T13:15:37.512Z,1.63
2023-04-25T13:18:07.843Z,1.33
2023-04-25T13:20:35.725Z,2.00
2023-04-25T13:23:03.516Z,1.67
2023-04-25T13:25:31.300Z,1.80
2023-04-25T13:27:59.078Z,2.13
2023-04-25T13:30:27.069Z,1.23
2023-04-25T13:32:57.290Z,1.33
2023-04-25T13:35:26.819Z,1.50
2023-04-25T13:37:54.579Z,1.60
2023-04-25T13:40:24.678Z,1.43
2023-04-25T13:42:53.279Z,1.83
2023-04-25T13:45:21.470Z,1.60
2023-04-25T13:47:49.414Z,1.57
2023-04-25T13:50:17.218Z,1.50
2023-04-25T13:52:46.375Z,1.67
2023-04-25T13:55:14.082Z,1.70
2023-04-25T13:57:41.799Z,1.67
2023-04-25T14:00:10.944Z,2.40
2023-04-25T14:02:38.907Z,1.80
2023-04-25T14:05:07.893Z,3.83
2023-04-25T14:07:36.986Z,2.33
2023-04-25T14:10:07.902Z,1.73
2023-04-25T14:12:36.121Z,3.40
2023-04-25T14:15:04.314Z,2.40
2023-04-25T14:17:32.094Z,2.17
2023-04-25T14:19:59.896Z,2.00
2023-04-25T14:22:27.906Z,1.90
2023-04-25T14:24:55.596Z,1.93
2023-04-25T14:27:25.375Z,2.40
2023-04-25T14:29:53.906Z,2.10
2023-04-25T14:32:22.087Z,2.07
2023-04-25T14:34:49.798Z,1.50
2023-04-25T14:37:17.842Z,1.47
2023-04-25T14:39:46.473Z,1.63
2023-04-25T14:42:14.324Z,1.60
2023-04-25T14:44:43.428Z,4.23
2023-04-25T14:47:11.185Z,1.67
2023-04-25T14:49:38.935Z,1.73
2023-04-25T14:52:06.895Z,2.00
2023-04-25T14:54:34.701Z,2.20
2023-04-25T14:57:03.197Z,2.40
2023-04-25T14:59:31.046Z,2.37
2023-04-25T15:02:00.166Z,2.70
2023-04-25T15:04:28.686Z,2.60
2023-04-25T15:06:56.888Z,1.73
2023-04-25T15:09:25.095Z,1.77
2023-04-25T15:11:53.376Z,1.80
2023-04-25T15:14:21.145Z,2.57
2023-04-25T15:16:48.912Z,1.70
2023-04-25T15:19:18.146Z,1.33
2023-04-25T15:21:45.991Z,1.87
2023-04-25T15:24:15.531Z,1.73
2023-04-25T15:26:43.267Z,2.10
2023-04-25T15:29:11.560Z,1.83
2023-04-25T15:31:39.369Z,1.60
2023-04-25T15:34:07.137Z,1.87
2023-04-25T15:36:36.270Z,1.93
2023-04-25T15:39:04.188Z,1.57
2023-04-25T15:41:32.121Z,1.80
2023-04-25T15:44:01.588Z,1.60
2023-04-25T15:46:31.273Z,1.47
2023-04-25T15:48:59.219Z,1.53
2023-04-25T15:51:26.992Z,1.80
2023-04-25T15:53:56.410Z,2.53
2023-04-25T15:56:24.580Z,1.63
2023-04-25T15:58:52.599Z,1.60
2023-04-25T16:01:24.188Z,1.70
2023-04-25T16:03:52.410Z,1.50
2023-04-25T16:06:20.451Z,1.77
2023-04-25T16:08:48.176Z,0.97
2023-04-25T16:11:17.481Z,1.63
2023-04-25T16:13:45.212Z,1.60
2023-04-25T16:16:13.058Z,1.70
2023-04-25T16:18:40.912Z,1.83
2023-04-25T16:21:08.908Z,1.60
2023-04-25T16:23:36.655Z,2.10
2023-04-25T16:26:04.456Z,2.07
2023-04-25T16:28:33.567Z,2.37
2023-04-25T16:31:01.889Z,1.60
2023-04-25T16:33:29.708Z,1.53
2023-04-25T16:35:57.624Z,1.83
2023-04-25T16:38:25.359Z,1.40
2023-04-25T16:40:53.143Z,1.80
2023-04-25T16:43:21.389Z,1.87
2023-04-25T16:45:50.495Z,1.97
2023-04-25T16:48:20.736Z,1.20
2023-04-25T16:50:48.426Z,1.07
2023-04-25T16:53:17.057Z,1.23
2023-04-25T16:55:44.804Z,1.50
2023-04-25T16:58:12.588Z,1.57
2023-04-25T17:00:40.652Z,1.47
2023-04-25T17:03:09.861Z,1.60
2023-04-25T17:05:37.892Z,2.00
2023-04-25T17:08:06.688Z,1.77
2023-04-25T17:10:34.568Z,1.93
2023-04-25T17:13:02.536Z,1.30
2023-04-25T17:15:31.462Z,2.20
2023-04-25T17:18:00.691Z,1.60
2023-04-25T17:20:29.874Z,1.53
2023-04-25T17:22:58.044Z,1.53
2023-04-25T17:25:26.071Z,1.60
2023-04-25T17:27:54.218Z,1.77
2023-04-25T17:30:22.746Z,1.43
2023-04-25T17:32:50.523Z,1.30
2023-04-25T17:35:18.300Z,2.00
2023-04-25T17:37:47.673Z,2.30
2023-04-25T17:40:15.734Z,1.40
2023-04-25T17:42:43.515Z,1.60
2023-04-25T17:45:12.954Z,1.60
2023-04-25T17:47:40.963Z,1.70
2023-04-25T17:50:09.725Z,2.17
2023-04-25T17:52:38.656Z,1.23
2023-04-25T17:55:08.526Z,1.77
2023-04-25T17:57:36.257Z,1.67
2023-04-25T18:00:07.671Z,1.10
2023-04-25T18:02:36.615Z,1.87
2023-04-25T18:05:09.208Z,1.60
2023-04-25T18:07:37.663Z,1.77
2023-04-25T18:10:09.010Z,1.90
2023-04-25T18:12:36.959Z,1.67
2023-04-25T18:15:06.873Z,1.83
2023-04-25T18:17:39.864Z,1.50
2023-04-25T18:20:11.859Z,1.13
2023-04-25T18:22:39.697Z,1.80
2023-04-25T18:25:10.178Z,1.63
2023-04-25T18:27:38.288Z,1.53
2023-04-25T18:30:07.461Z,1.20
2023-04-25T18:32:35.324Z,1.20
2023-04-25T18:35:03.363Z,1.50
2023-04-25T18:37:31.106Z,1.43
2023-04-25T18:39:59.269Z,1.20
2023-04-25T18:42:29.154Z,1.50
2023-04-25T18:44:56.910Z,1.47
2023-04-25T18:47:24.680Z,1.43
2023-04-25T18:49:52.389Z,1.67
2023-04-25T18:52:20.110Z,2.20
2023-04-25T18:54:48.143Z,1.37
2023-04-25T18:57:17.708Z,1.50
2023-04-25T18:59:46.792Z,1.70
2023-04-25T19:02:16.138Z,2.00
2023-04-25T19:04:44.206Z,1.60
2023-04-25T19:07:12.249Z,1.63
2023-04-25T19:09:39.969Z,1.90
2023-04-25T19:12:07.857Z,1.60
2023-04-25T19:14:36.259Z,2.00
2023-04-25T19:17:05.407Z,1.97
2023-04-25T19:19:33.219Z,1.97
2023-04-25T19:22:01.276Z,1.80
2023-04-25T19:24:29.112Z,1.80
2023-04-25T19:26:56.890Z,1.53
2023-04-25T19:29:24.647Z,1.43
2023-04-25T19:31:52.442Z,1.50
2023-04-25T19:34:21.588Z,1.70
2023-04-25T19:36:52.599Z,1.43
2023-04-25T19:39:20.512Z,1.30
2023-04-25T19:41:48.264Z,1.87
2023-04-25T19:44:15.998Z,1.80
2023-04-25T19:46:46.509Z,1.37
2023-04-25T19:49:14.268Z,1.40
2023-04-25T19:51:43.861Z,1.20
2023-04-25T19:54:11.662Z,1.80
2023-04-25T19:56:39.415Z,1.63
2023-04-25T19:59:07.220Z,2.13
2023-04-25T20:01:35.008Z,1.53
2023-04-25T20:04:02.786Z,1.40
2023-04-25T20:06:30.540Z,0.90
2023-04-25T20:08:59.613Z,1.60
2023-04-25T20:11:29.112Z,1.33
2023-04-25T20:13:57.405Z,1.77
2023-04-25T20:16:25.264Z,2.03
2023-04-25T20:18:54.086Z,1.00
2023-04-25T20:21:23.570Z,1.83
2023-04-25T20:23:51.332Z,1.27
2023-04-25T20:26:22.664Z,1.37
2023-04-25T20:28:50.844Z,1.40
2023-04-25T20:31:18.969Z,1.33
2023-04-25T20:33:46.844Z,1.40
2023-04-25T20:36:15.208Z,1.60
2023-04-25T20:38:43.020Z,1.47
2023-04-25T20:41:10.805Z,1.10
2023-04-25T20:43:40.359Z,1.30
2023-04-25T20:46:09.075Z,1.47
2023-04-25T20:48:36.792Z,1.90
2023-04-25T20:51:07.084Z,1.30
2023-04-25T20:53:34.870Z,1.33
2023-04-25T20:56:02.699Z,1.20
2023-04-25T20:58:31.125Z,1.43
2023-04-25T21:01:01.681Z,1.60
2023-04-25T21:03:30.376Z,1.53
2023-04-25T21:05:58.339Z,1.63
2023-04-25T21:08:26.118Z,1.50
2023-04-25T21:10:53.968Z,1.10
2023-04-25T21:13:22.470Z,1.10
2023-04-25T21:15:50.207Z,1.63
2023-04-25T21:18:19.544Z,1.37
2023-04-25T21:20:47.333Z,0.77
2023-04-25T21:23:15.578Z,1.50
2023-04-25T21:25:43.548Z,1.57
2023-04-25T21:28:11.513Z,1.77
2023-04-25T21:30:39.338Z,1.63
2023-04-25T21:33:07.152Z,0.90
2023-04-25T21:35:37.070Z,1.60
2023-04-25T21:38:04.855Z,1.47
2023-04-25T21:40:32.708Z,1.50
2023-04-25T21:43:01.172Z,2.20
2023-04-25T21:45:29.512Z,1.83
2023-04-25T21:47:57.388Z,1.50
2023-04-25T21:50:25.454Z,1.67
2023-04-25T21:52:58.817Z,1.90
2023-04-25T21:55:26.959Z,0.93
2023-04-25T21:57:54.890Z,1.33
2023-04-25T22:00:24.871Z,1.77
2023-04-25T22:02:53.528Z,0.83
2023-04-25T22:05:22.476Z,1.53
2023-04-25T22:07:51.281Z,1.80
2023-04-25T22:10:21.402Z,1.77
2023-04-25T22:12:50.839Z,1.00
2023-04-25T22:15:19.346Z,1.30
2023-04-25T22:17:47.855Z,1.73
2023-04-25T22:20:15.905Z,1.10
2023-04-25T22:22:44.139Z,1.10
2023-04-25T22:25:12.975Z,1.10
2023-04-25T22:27:42.935Z,1.43
2023-04-25T22:30:12.971Z,1.50
2023-04-25T22:32:41.531Z,1.53
2023-04-25T22:35:10.458Z,1.47
2023-04-25T22:37:38.674Z,1.27
2023-04-25T22:40:08.948Z,1.00
2023-04-25T22:42:40.776Z,0.90
2023-04-25T22:45:11.523Z,2.07
2023-04-25T22:47:40.566Z,1.57
2023-04-25T22:50:13.519Z,1.30
2023-04-25T22:52:42.400Z,1.23
2023-04-25T22:55:12.205Z,1.70
2023-04-25T22:57:40.646Z,1.07
2023-04-25T23:00:16.335Z,1.70
2023-04-25T23:02:45.757Z,1.50
2023-04-25T23:05:14.298Z,1.77
2023-04-25T23:07:44.531Z,1.47
2023-04-25T23:10:13.084Z,1.13
2023-04-25T23:12:41.086Z,1.50
2023-04-25T23:15:13.066Z,1.47
2023-04-25T23:17:41.945Z,1.27
2023-04-25T23:20:12.052Z,1.40
2023-04-25T23:22:40.048Z,1.40
2023-04-25T23:25:09.643Z,0.87
2023-04-25T23:27:38.147Z,1.33
2023-04-25T23:30:07.259Z,1.00
2023-04-25T23:32:36.591Z,1.77
2023-04-25T23:35:04.890Z,1.53
2023-04-25T23:37:34.432Z,1.30
2023-04-25T23:40:04.209Z,1.90
2023-04-25T23:42:31.963Z,1.47
2023-04-25T23:44:59.683Z,1.43
2023-04-25T23:47:27.484Z,1.20
2023-04-25T23:49:56.862Z,1.63
2023-04-25T23:52:24.694Z,1.30
2023-04-25T23:54:52.486Z,1.27
2023-04-25T23:57:20.225Z,1.77
2023-04-25T23:59:47.944Z,1.50
